createdAt,value
2023-02-02T00:01:30.208Z,5.93
2023-02-02T00:03:58.652Z,5.95
2023-02-02T00:06:27.687Z,5.83
2023-02-02T00:08:57.262Z,5.84
2023-02-02T00:11:25.126Z,5.86
2023-02-02T00:13:51.855Z,5.83
2023-02-02T00:16:30.596Z,5.79
2023-02-02T00:19:00.653Z,5.78
2023-02-02T00:21:28.086Z,5.72
2023-02-02T00:23:54.864Z,5.77
2023-02-02T00:26:22.155Z,5.75
2023-02-02T00:28:49.176Z,5.80
2023-02-02T00:31:15.934Z,5.69
2023-02-02T00:33:47.182Z,5.70
2023-02-02T00:36:14.436Z,5.70
2023-02-02T00:38:42.167Z,5.61
2023-02-02T00:41:08.926Z,5.59
2023-02-02T00:43:35.560Z,5.59
2023-02-02T00:46:02.312Z,5.56
2023-02-02T00:48:29.127Z,5.64
2023-02-02T00:50:55.948Z,5.56
2023-02-02T00:53:22.770Z,5.61
2023-02-02T00:55:49.531Z,5.53
2023-02-02T00:58:16.546Z,5.52
2023-02-02T01:00:43.229Z,5.49
2023-02-02T01:03:10.362Z,5.48
2023-02-02T01:05:37.140Z,5.48
2023-02-02T01:08:03.885Z,5.39
2023-02-02T01:10:30.701Z,5.50
2023-02-02T01:12:57.727Z,5.48
2023-02-02T01:15:25.049Z,5.51
2023-02-02T01:17:52.027Z,5.46
2023-02-02T01:20:20.657Z,5.36
2023-02-02T01:22:47.822Z,5.34
2023-02-02T01:25:14.826Z,5.28
2023-02-02T01:27:43.176Z,5.20
2023-02-02T01:30:10.955Z,5.20
2023-02-02T01:32:39.249Z,5.17
2023-02-02T01:35:06.646Z,5.17
2023-02-02T01:37:33.385Z,5.19
2023-02-02T01:40:00.171Z,5.20
2023-02-02T01:42:27.845Z,5.03
2023-02-02T01:45:19.514Z,5.10
2023-02-02T01:47:50.575Z,5.08
2023-02-02T01:50:20.983Z,5.01
2023-02-02T01:52:51.193Z,4.93
2023-02-02T01:55:22.095Z,4.83
2023-02-02T01:58:00.404Z,4.88
2023-02-02T02:00:27.885Z,4.90
2023-02-02T02:02:58.697Z,4.88
2023-02-02T02:05:32.560Z,4.83
2023-02-02T02:08:19.423Z,4.69
2023-02-02T02:10:46.635Z,4.66
2023-02-02T02:13:14.759Z,4.62
2023-02-02T02:16:14.218Z,4.52
2023-02-02T02:18:51.567Z,4.48
2023-02-02T02:22:01.367Z,4.48
2023-02-02T02:25:17.994Z,4.39
2023-02-02T02:27:50.686Z,4.32
2023-02-02T02:30:38.735Z,4.24
2023-02-02T02:33:17.979Z,4.21
2023-02-02T02:36:02.744Z,4.32
2023-02-02T02:38:38.035Z,4.18
2023-02-02T02:41:12.227Z,4.15
2023-02-02T02:43:47.978Z,4.10
2023-02-02T02:46:15.110Z,4.08
2023-02-02T02:48:45.176Z,4.10
2023-02-02T02:51:43.128Z,4.13
2023-02-02T02:54:14.997Z,4.10
2023-02-02T02:56:47.674Z,4.12
2023-02-02T02:59:22.481Z,4.10
2023-02-02T03:01:59.707Z,4.16
2023-02-02T03:04:44.982Z,4.19
2023-02-02T03:07:21.951Z,4.14
2023-02-02T03:09:50.272Z,4.20
2023-02-02T03:12:17.944Z,4.21
2023-02-02T03:14:44.755Z,4.29
2023-02-02T03:17:11.393Z,4.29
2023-02-02T03:19:38.058Z,4.28
2023-02-02T03:22:04.677Z,4.35
2023-02-02T03:24:31.419Z,4.37
2023-02-02T03:26:58.127Z,4.34
2023-02-02T03:29:25.273Z,4.41
2023-02-02T03:31:52.016Z,4.37
2023-02-02T03:34:18.776Z,4.38
2023-02-02T03:36:45.380Z,4.42
2023-02-02T03:39:12.014Z,4.45
2023-02-02T03:41:38.623Z,4.44
2023-02-02T03:44:05.481Z,4.41
2023-02-02T03:46:32.134Z,4.44
2023-02-02T03:48:58.772Z,4.43
2023-02-02T03:51:25.566Z,4.45
2023-02-02T03:53:52.250Z,4.45
2023-02-02T03:56:19.537Z,4.43
2023-02-02T03:58:47.172Z,4.51
2023-02-02T04:01:15.015Z,4.49
2023-02-02T04:03:42.080Z,4.47
2023-02-02T04:06:09.291Z,4.56
2023-02-02T04:08:36.137Z,4.62
2023-02-02T04:11:03.155Z,4.59
2023-02-02T04:13:29.847Z,4.69
2023-02-02T04:16:01.133Z,4.58
2023-02-02T04:18:28.828Z,4.64
2023-02-02T04:20:57.684Z,4.63
2023-02-02T04:23:24.422Z,4.65
2023-02-02T04:25:51.768Z,4.71
2023-02-02T04:28:18.747Z,4.69
2023-02-02T04:30:45.574Z,4.71
2023-02-02T04:33:12.283Z,4.79
2023-02-02T04:35:38.956Z,4.81
2023-02-02T04:38:05.624Z,4.84
2023-02-02T04:40:32.341Z,4.87
2023-02-02T04:42:59.114Z,4.87
2023-02-02T04:45:26.143Z,4.89
2023-02-02T04:47:53.180Z,4.90
2023-02-02T04:50:20.021Z,4.93
2023-02-02T04:52:46.854Z,4.91
2023-02-02T04:55:13.741Z,4.86
2023-02-02T04:57:40.532Z,4.89
2023-02-02T05:00:07.993Z,4.92
2023-02-02T05:02:39.020Z,4.93
2023-02-02T05:05:09.348Z,4.95
2023-02-02T05:07:36.721Z,4.91
2023-02-02T05:10:05.024Z,4.94
2023-02-02T05:12:31.768Z,4.94
2023-02-02T05:15:01.063Z,4.94
2023-02-02T05:17:27.889Z,5.01
2023-02-02T05:19:54.768Z,5.00
2023-02-02T05:22:21.508Z,5.04
2023-02-02T05:24:48.249Z,5.03
2023-02-02T05:27:15.042Z,5.07
2023-02-02T05:29:41.787Z,5.10
2023-02-02T05:32:08.588Z,5.07
2023-02-02T05:34:35.337Z,5.00
2023-02-02T05:37:02.087Z,4.94
2023-02-02T05:39:28.733Z,4.80
2023-02-02T05:41:55.420Z,4.92
2023-02-02T05:44:22.329Z,4.94
2023-02-02T05:46:48.974Z,4.81
2023-02-02T05:49:15.758Z,4.76
2023-02-02T05:51:48.446Z,4.72
2023-02-02T05:54:19.293Z,4.68
2023-02-02T05:56:50.884Z,4.65
2023-02-02T05:59:18.465Z,4.63
2023-02-02T06:01:46.510Z,4.68
2023-02-02T06:04:13.690Z,4.64
2023-02-02T06:06:41.484Z,4.66
2023-02-02T06:09:08.801Z,4.63
2023-02-02T06:11:35.685Z,4.66
2023-02-02T06:14:02.473Z,4.69
2023-02-02T06:16:29.316Z,4.69
2023-02-02T06:18:56.299Z,4.84
2023-02-02T06:21:25.745Z,4.82
2023-02-02T06:23:52.870Z,4.79
2023-02-02T06:26:19.684Z,4.77
2023-02-02T06:28:53.820Z,4.76
2023-02-02T06:31:20.984Z,4.84
2023-02-02T06:33:52.404Z,4.90
2023-02-02T06:36:19.162Z,4.86
2023-02-02T06:38:50.196Z,4.82
2023-02-02T06:41:17.395Z,4.84
2023-02-02T06:43:44.359Z,4.82
2023-02-02T06:46:11.370Z,4.86
2023-02-02T06:48:38.209Z,4.94
2023-02-02T06:51:05.576Z,5.01
2023-02-02T06:53:32.855Z,4.95
2023-02-02T06:56:02.155Z,4.90
2023-02-02T06:58:29.943Z,4.91
2023-02-02T07:01:05.822Z,4.92
2023-02-02T07:03:33.567Z,5.01
2023-02-02T07:06:17.938Z,5.07
2023-02-02T07:08:45.190Z,5.07
2023-02-02T07:11:16.655Z,5.00
2023-02-02T07:13:45.558Z,5.04
2023-02-02T07:16:13.480Z,4.93
2023-02-02T07:18:42.817Z,4.97
2023-02-02T07:21:17.462Z,4.91
2023-02-02T07:23:44.338Z,4.92
2023-02-02T07:26:12.192Z,4.98
2023-02-02T07:28:38.912Z,4.92
2023-02-02T07:31:20.688Z,4.96
2023-02-02T07:33:48.717Z,5.02
2023-02-02T07:36:18.364Z,4.98
2023-02-02T07:38:47.078Z,4.98
2023-02-02T07:41:14.885Z,5.09
2023-02-02T07:43:41.872Z,5.05
2023-02-02T07:46:10.258Z,5.10
2023-02-02T07:48:37.634Z,5.08
2023-02-02T07:51:07.659Z,5.11
2023-02-02T07:53:35.569Z,5.05
2023-02-02T07:56:15.029Z,5.02
2023-02-02T07:58:42.912Z,5.16
2023-02-02T08:01:11.597Z,5.19
2023-02-02T08:03:39.257Z,5.18
2023-02-02T08:06:10.547Z,5.24
2023-02-02T08:08:37.306Z,5.16
2023-02-02T08:11:04.076Z,5.24
2023-02-02T08:13:30.716Z,5.13
2023-02-02T08:15:58.497Z,5.30
2023-02-02T08:18:25.494Z,5.42
2023-02-02T08:20:52.718Z,5.37
2023-02-02T08:23:23.584Z,5.33
2023-02-02T08:25:50.993Z,5.37
2023-02-02T08:28:18.840Z,5.27
2023-02-02T08:30:46.527Z,5.24
2023-02-02T08:33:13.750Z,5.15
2023-02-02T08:35:44.441Z,5.26
2023-02-02T08:38:11.127Z,5.50
2023-02-02T08:40:37.794Z,5.59
2023-02-02T08:43:04.837Z,5.42
2023-02-02T08:46:01.673Z,5.52
2023-02-02T08:48:19.821Z,5.84
2023-02-02T08:50:55.697Z,5.66
2023-02-02T08:53:23.521Z,5.80
2023-02-02T08:56:04.933Z,5.68
2023-02-02T08:58:32.072Z,5.99
2023-02-02T09:01:36.869Z,6.14
2023-02-02T09:04:08.352Z,6.37
2023-02-02T09:06:39.526Z,6.13
2023-02-02T09:09:09.179Z,6.52
2023-02-02T09:11:36.616Z,6.39
2023-02-02T09:14:06.459Z,6.25
2023-02-02T09:16:35.236Z,5.87
2023-02-02T09:19:02.740Z,5.74
2023-02-02T09:21:29.541Z,5.66
2023-02-02T09:23:56.559Z,5.36
2023-02-02T09:26:26.644Z,5.19
2023-02-02T09:29:02.885Z,5.13
2023-02-02T09:31:34.649Z,5.02
2023-02-02T09:34:11.246Z,5.24
2023-02-02T09:36:39.975Z,5.72
2023-02-02T09:39:07.490Z,6.24
2023-02-02T09:41:37.128Z,7.14
2023-02-02T09:44:06.731Z,7.75
2023-02-02T09:46:58.585Z,7.29
2023-02-02T09:49:48.343Z,7.56
2023-02-02T09:52:46.785Z,7.26
2023-02-02T09:55:39.129Z,7.68
2023-02-02T09:58:27.140Z,7.48
2023-02-02T10:01:15.702Z,7.83
2023-02-02T10:03:58.718Z,7.52
2023-02-02T10:06:41.045Z,7.70
2023-02-02T10:09:10.581Z,8.01
2023-02-02T10:11:43.560Z,8.32
2023-02-02T10:14:53.103Z,8.76
2023-02-02T10:17:31.845Z,8.27
2023-02-02T10:20:12.596Z,8.42
2023-02-02T10:22:40.235Z,7.67
2023-02-02T10:25:12.232Z,7.53
2023-02-02T10:27:40.946Z,7.49
2023-02-02T10:30:19.289Z,7.50
2023-02-02T10:33:01.253Z,7.68
2023-02-02T10:35:42.888Z,7.09
2023-02-02T10:38:38.495Z,7.57
2023-02-02T10:41:25.617Z,7.78
2023-02-02T10:44:17.457Z,7.38
2023-02-02T10:46:48.903Z,7.16
2023-02-02T10:49:22.383Z,7.55
2023-02-02T10:51:58.213Z,7.53
2023-02-02T10:54:55.867Z,7.77
2023-02-02T10:57:30.554Z,7.74
2023-02-02T11:00:02.384Z,7.40
2023-02-02T11:02:29.539Z,7.72
2023-02-02T11:05:15.656Z,8.07
2023-02-02T11:07:42.551Z,8.05
2023-02-02T11:10:10.607Z,8.17
2023-02-02T11:12:42.160Z,9.02
2023-02-02T11:15:25.761Z,8.55
2023-02-02T11:17:52.534Z,8.80
2023-02-02T11:20:31.207Z,8.51
2023-02-02T11:23:03.933Z,8.68
2023-02-02T11:25:34.291Z,9.05
2023-02-02T11:28:11.026Z,9.27
2023-02-02T11:30:38.802Z,9.74
2023-02-02T11:33:28.385Z,9.63
2023-02-02T11:36:01.836Z,9.82
2023-02-02T11:38:29.667Z,9.60
2023-02-02T11:41:07.044Z,9.63
2023-02-02T11:43:42.133Z,9.70
2023-02-02T11:46:21.955Z,9.46
2023-02-02T11:49:23.300Z,9.26
2023-02-02T11:52:02.079Z,8.91
2023-02-02T11:54:33.217Z,8.51
2023-02-02T11:57:02.765Z,8.73
2023-02-02T11:59:39.526Z,8.75
2023-02-02T12:02:26.351Z,9.03
2023-02-02T12:05:11.862Z,9.18
2023-02-02T12:07:39.627Z,9.04
2023-02-02T12:10:47.991Z,8.08
2023-02-02T12:13:27.723Z,8.45
2023-02-02T12:16:08.736Z,8.30
2023-02-02T12:18:45.764Z,8.34
2023-02-02T12:21:27.971Z,8.42
2023-02-02T12:24:00.660Z,8.17
2023-02-02T12:26:37.263Z,7.55
2023-02-02T12:29:38.298Z,8.16
2023-02-02T12:32:26.930Z,7.86
2023-02-02T12:35:13.980Z,8.03
2023-02-02T12:38:11.080Z,7.86
2023-02-02T12:41:13.374Z,7.78
2023-02-02T12:43:54.406Z,7.32
2023-02-02T12:46:40.723Z,7.29
2023-02-02T12:49:48.729Z,7.13
2023-02-02T12:52:37.007Z,7.10
2023-02-02T12:55:22.015Z,6.93
2023-02-02T12:58:17.589Z,6.79
2023-02-02T13:01:05.892Z,6.55
2023-02-02T13:04:00.539Z,6.96
2023-02-02T13:06:45.535Z,6.94
2023-02-02T13:09:41.619Z,7.02
2023-02-02T13:12:11.668Z,6.88
2023-02-02T13:14:45.607Z,7.09
2023-02-02T13:17:19.331Z,7.16
2023-02-02T13:19:53.918Z,6.90
2023-02-02T13:22:40.612Z,7.15
2023-02-02T13:25:16.903Z,7.15
2023-02-02T13:27:44.683Z,7.25
2023-02-02T13:30:24.884Z,6.96
2023-02-02T13:32:53.285Z,6.89
2023-02-02T13:35:39.493Z,6.97
2023-02-02T13:38:18.581Z,6.98
2023-02-02T13:40:45.477Z,6.94
2023-02-02T13:43:33.868Z,6.98
2023-02-02T13:46:12.397Z,6.66
2023-02-02T13:49:14.523Z,6.42
2023-02-02T13:52:03.205Z,6.73
2023-02-02T13:54:49.167Z,6.40
2023-02-02T13:57:38.219Z,6.82
2023-02-02T14:00:13.963Z,6.86
2023-02-02T14:02:53.922Z,7.25
2023-02-02T14:05:31.093Z,7.37
2023-02-02T14:08:07.488Z,7.58
2023-02-02T14:10:42.367Z,7.55
2023-02-02T14:13:41.450Z,7.53
2023-02-02T14:16:20.325Z,7.49
2023-02-02T14:18:50.172Z,7.35
2023-02-02T14:21:35.078Z,7.28
2023-02-02T14:24:17.376Z,7.19
2023-02-02T14:26:48.715Z,7.09
2023-02-02T14:29:34.846Z,6.65
2023-02-02T14:32:29.682Z,6.29
2023-02-02T14:35:08.666Z,6.41
2023-02-02T14:37:59.009Z,6.12
2023-02-02T14:40:34.137Z,5.87
2023-02-02T14:43:30.623Z,5.63
2023-02-02T14:46:12.967Z,5.60
2023-02-02T14:48:42.275Z,5.42
2023-02-02T14:51:22.235Z,5.39
2023-02-02T14:54:01.612Z,5.34
2023-02-02T14:57:06.488Z,5.27
2023-02-02T14:59:39.318Z,5.23
2023-02-02T15:02:22.797Z,4.97
2023-02-02T15:04:50.115Z,4.90
2023-02-02T15:07:22.845Z,4.87
2023-02-02T15:09:56.396Z,4.77
2023-02-02T15:12:34.101Z,4.69
2023-02-02T15:15:22.660Z,4.56
2023-02-02T15:17:55.936Z,4.56
2023-02-02T15:20:26.556Z,4.49
2023-02-02T15:23:15.588Z,4.44
2023-02-02T15:26:11.575Z,4.46
2023-02-02T15:28:44.476Z,4.31
2023-02-02T15:31:11.327Z,4.16
2023-02-02T15:33:49.480Z,4.09
2023-02-02T15:36:26.401Z,3.98
2023-02-02T15:39:08.457Z,3.92
2023-02-02T15:41:41.726Z,3.85
2023-02-02T15:44:22.596Z,3.67
2023-02-02T15:46:49.696Z,3.65
2023-02-02T15:49:35.864Z,3.50
2023-02-02T15:52:12.703Z,3.38
2023-02-02T15:54:52.834Z,3.31
2023-02-02T15:57:34.090Z,3.31
2023-02-02T16:00:22.557Z,3.31
2023-02-02T16:02:58.291Z,3.17
2023-02-02T16:05:40.006Z,3.31
2023-02-02T16:08:24.711Z,3.23
2023-02-02T16:11:01.223Z,3.11
2023-02-02T16:13:29.362Z,3.00
2023-02-02T16:15:58.609Z,2.96
2023-02-02T16:18:25.762Z,2.83
2023-02-02T16:20:54.321Z,2.82
2023-02-02T16:23:30.556Z,2.74
2023-02-02T16:25:59.880Z,2.65
2023-02-02T16:28:26.864Z,2.52
2023-02-02T16:30:53.801Z,2.47
2023-02-02T16:33:39.662Z,2.41
2023-02-02T16:36:29.682Z,2.34
2023-02-02T16:38:58.367Z,2.22
2023-02-02T16:41:33.914Z,2.24
2023-02-02T16:44:40.318Z,2.14
2023-02-02T16:47:23.793Z,2.13
2023-02-02T16:49:51.500Z,1.99
2023-02-02T16:52:21.250Z,1.94
2023-02-02T16:54:58.252Z,1.85
2023-02-02T16:57:34.022Z,1.75
2023-02-02T17:00:05.119Z,1.71
2023-02-02T17:02:34.980Z,1.76
2023-02-02T17:05:07.760Z,1.72
2023-02-02T17:07:37.807Z,1.61
2023-02-02T17:10:13.743Z,1.67
2023-02-02T17:12:40.543Z,1.61
2023-02-02T17:15:16.357Z,1.64
2023-02-02T17:17:50.513Z,1.62
2023-02-02T17:20:18.775Z,1.66
2023-02-02T17:22:48.533Z,1.68
2023-02-02T17:25:17.872Z,1.68
2023-02-02T17:27:45.460Z,1.67
2023-02-02T17:30:17.582Z,1.63
2023-02-02T17:32:44.413Z,1.61
2023-02-02T17:35:20.916Z,1.66
2023-02-02T17:37:48.615Z,1.63
2023-02-02T17:40:17.320Z,1.64
2023-02-02T17:42:46.027Z,1.76
2023-02-02T17:45:25.010Z,1.68
2023-02-02T17:47:52.031Z,1.65
2023-02-02T17:50:19.176Z,1.66
2023-02-02T17:52:46.253Z,1.58
2023-02-02T17:55:17.957Z,1.46
2023-02-02T17:57:47.131Z,1.42
2023-02-02T18:00:15.109Z,2.37
2023-02-02T18:02:42.366Z,3.28
2023-02-02T18:05:10.433Z,2.59
2023-02-02T18:07:37.762Z,1.80
2023-02-02T18:10:06.362Z,1.63
2023-02-02T18:12:36.022Z,1.65
2023-02-02T18:15:05.545Z,1.62
2023-02-02T18:17:34.033Z,1.65
2023-02-02T18:20:01.331Z,1.55
2023-02-02T18:22:28.096Z,1.50
2023-02-02T18:24:54.781Z,1.36
2023-02-02T18:27:21.761Z,1.40
2023-02-02T18:29:48.633Z,1.37
2023-02-02T18:32:18.299Z,1.46
2023-02-02T18:34:45.700Z,1.28
2023-02-02T18:37:12.928Z,1.20
2023-02-02T18:39:40.567Z,1.20
2023-02-02T18:42:07.347Z,1.09
2023-02-02T18:44:36.356Z,1.08
2023-02-02T18:47:03.087Z,1.18
2023-02-02T18:49:29.920Z,1.11
2023-02-02T18:51:56.691Z,1.05
2023-02-02T18:54:23.730Z,1.07
2023-02-02T18:56:50.507Z,1.21
2023-02-02T18:59:17.325Z,1.12
2023-02-02T19:01:44.179Z,1.13
2023-02-02T19:04:11.368Z,1.06
2023-02-02T19:06:56.724Z,1.01
2023-02-02T19:09:24.839Z,1.01
2023-02-02T19:11:55.278Z,0.98
2023-02-02T19:14:26.975Z,0.94
2023-02-02T19:16:59.366Z,0.98
2023-02-02T19:19:33.488Z,1.02
2023-02-02T19:22:07.662Z,1.08
2023-02-02T19:24:41.191Z,1.10
2023-02-02T19:27:24.809Z,1.07
2023-02-02T19:29:55.977Z,1.12
2023-02-02T19:32:31.289Z,1.11
2023-02-02T19:35:03.221Z,1.05
2023-02-02T19:37:39.105Z,0.96
2023-02-02T19:40:09.328Z,0.97
2023-02-02T19:42:44.227Z,0.99
2023-02-02T19:45:27.586Z,1.03
2023-02-02T19:48:00.077Z,1.12
2023-02-02T19:50:33.672Z,1.02
2023-02-02T19:53:06.041Z,1.05
2023-02-02T19:55:37.047Z,1.07
2023-02-02T19:58:31.565Z,1.03
2023-02-02T20:01:15.480Z,1.01
2023-02-02T20:03:45.531Z,0.96
2023-02-02T20:06:27.202Z,0.90
2023-02-02T20:08:54.290Z,0.97
2023-02-02T20:11:32.475Z,0.92
2023-02-02T20:14:00.303Z,0.97
2023-02-02T20:16:41.094Z,0.94
2023-02-02T20:19:17.275Z,0.83
2023-02-02T20:21:46.424Z,0.98
2023-02-02T20:24:23.273Z,0.91
2023-02-02T20:26:51.985Z,0.93
2023-02-02T20:29:38.175Z,1.07
2023-02-02T20:32:08.363Z,1.01
2023-02-02T20:34:41.841Z,1.09
2023-02-02T20:37:22.202Z,1.10
2023-02-02T20:39:57.416Z,1.11
2023-02-02T20:42:25.037Z,0.93
2023-02-02T20:44:52.972Z,0.98
2023-02-02T20:47:20.029Z,1.09
2023-02-02T20:49:47.189Z,1.07
2023-02-02T20:52:24.018Z,1.17
2023-02-02T20:54:51.885Z,1.17
2023-02-02T20:57:19.133Z,1.14
2023-02-02T20:59:46.095Z,1.21
2023-02-02T21:02:19.008Z,1.22
2023-02-02T21:04:49.836Z,1.20
2023-02-02T21:07:18.339Z,1.12
2023-02-02T21:09:45.788Z,1.10
2023-02-02T21:12:12.644Z,1.16
2023-02-02T21:14:39.632Z,1.24
2023-02-02T21:17:14.856Z,1.29
2023-02-02T21:19:42.966Z,1.17
2023-02-02T21:22:10.435Z,1.31
2023-02-02T21:24:37.663Z,1.26
2023-02-02T21:27:04.889Z,1.36
2023-02-02T21:29:32.727Z,1.24
2023-02-02T21:32:02.544Z,1.32
2023-02-02T21:34:30.984Z,1.29
2023-02-02T21:36:58.735Z,1.34
2023-02-02T21:39:35.361Z,1.35
2023-02-02T21:42:08.077Z,1.45
2023-02-02T21:44:37.246Z,1.47
2023-02-02T21:47:30.721Z,1.51
2023-02-02T21:50:03.721Z,1.54
2023-02-02T21:52:33.946Z,1.58
2023-02-02T21:55:14.283Z,1.63
2023-02-02T21:57:42.193Z,1.73
2023-02-02T22:00:22.885Z,1.78
2023-02-02T22:02:54.098Z,1.67
2023-02-02T22:05:33.845Z,1.67
2023-02-02T22:08:02.985Z,1.73
2023-02-02T22:10:35.220Z,1.67
2023-02-02T22:13:11.383Z,1.75
2023-02-02T22:15:39.057Z,1.76
2023-02-02T22:18:35.625Z,1.67
2023-02-02T22:21:02.287Z,1.65
2023-02-02T22:23:29.118Z,1.64
2023-02-02T22:25:57.832Z,1.75
2023-02-02T22:28:29.885Z,1.71
2023-02-02T22:30:58.480Z,1.69
2023-02-02T22:33:26.658Z,1.86
2023-02-02T22:35:54.153Z,1.83
2023-02-02T22:38:23.326Z,1.85
2023-02-02T22:40:51.516Z,1.96
2023-02-02T22:43:20.359Z,1.95
2023-02-02T22:45:49.177Z,1.95
2023-02-02T22:48:16.526Z,1.96
2023-02-02T22:50:43.327Z,1.94
2023-02-02T22:53:10.226Z,1.93
2023-02-02T22:55:38.251Z,1.83
2023-02-02T22:58:05.002Z,1.92
2023-02-02T23:00:33.087Z,1.92
2023-02-02T23:03:00.566Z,1.88
2023-02-02T23:05:27.987Z,1.95
2023-02-02T23:07:55.397Z,1.95
2023-02-02T23:10:25.183Z,1.94
2023-02-02T23:12:56.014Z,1.96
2023-02-02T23:15:22.764Z,1.99
2023-02-02T23:17:49.736Z,1.97
2023-02-02T23:20:17.741Z,2.05
2023-02-02T23:22:44.736Z,2.09
2023-02-02T23:25:13.041Z,2.07
2023-02-02T23:27:40.519Z,2.00
2023-02-02T23:30:09.351Z,2.03
2023-02-02T23:32:36.322Z,2.01
2023-02-02T23:35:03.905Z,2.00
2023-02-02T23:37:30.736Z,2.06
2023-02-02T23:39:57.501Z,2.03
2023-02-02T23:42:25.620Z,2.05
2023-02-02T23:44:52.602Z,2.08
2023-02-02T23:47:19.735Z,2.09
2023-02-02T23:49:46.529Z,2.10
2023-02-02T23:52:13.607Z,2.11
2023-02-02T23:54:40.542Z,2.14
2023-02-02T23:57:07.311Z,2.06
2023-02-02T23:59:33.978Z,2.08
